<?xml version='1.0' encoding='UTF-8'?><gpx version="1.1" creator="JPX - https://github.com/jenetics/jpx" xmlns="http://www.topografix.com/GPX/1/1"><trk><trkseg><trkpt lat="45.3542983" lon="10.623825"><ele>173.0</ele><time>2026-03-28T13:49:49.505Z</time></trkpt><trkpt lat="45.3542933" lon="10.623915"><ele>173.0</ele><time>2026-03-28T13:49:50.528Z</time></trkpt><trkpt lat="45.3542817" lon="10.6240417"><ele>173.0</ele><time>2026-03-28T13:49:51.504Z</time></trkpt><trkpt lat="45.3542717" lon="10.6241667"><ele>173.0</ele><time>2026-03-28T13:49:52.504Z</time></trkpt><trkpt lat="45.3542783" lon="10.6242983"><ele>173.0</ele><time>2026-03-28T13:49:53.502Z</time></trkpt><trkpt lat="45.35428" lon="10.624415"><ele>173.0</ele><time>2026-03-28T13:49:54.503Z</time></trkpt><trkpt lat="45.3542933" lon="10.62453"><ele>173.0</ele><time>2026-03-28T13:49:55.501Z</time></trkpt><trkpt lat="45.3543133" lon="10.6246383"><ele>173.0</ele><time>2026-03-28T13:49:56.566Z</time></trkpt><trkpt lat="45.3543267" lon="10.6247483"><ele>173.0</ele><time>2026-03-28T13:49:57.501Z</time></trkpt><trkpt lat="45.3543267" lon="10.6248683"><ele>173.0</ele><time>2026-03-28T13:49:58.504Z</time></trkpt><trkpt lat="45.35431" lon="10.6249967"><ele>173.0</ele><time>2026-03-28T13:49:59.504Z</time></trkpt><trkpt lat="45.3542767" lon="10.625135"><ele>173.0</ele><time>2026-03-28T13:50:00.504Z</time></trkpt><trkpt lat="45.3542267" lon="10.6252867"><ele>174.5</ele><time>2026-03-28T13:50:01.504Z</time></trkpt><trkpt lat="45.3541717" lon="10.6254567"><ele>176.0</ele><time>2026-03-28T13:50:02.512Z</time></trkpt><trkpt lat="45.3541133" lon="10.6256333"><ele>177.5</ele><time>2026-03-28T13:50:03.51Z</time></trkpt><trkpt lat="45.3540467" lon="10.6258167"><ele>179.0</ele><time>2026-03-28T13:50:04.507Z</time></trkpt><trkpt lat="45.3539833" lon="10.6260067"><ele>181.0</ele><time>2026-03-28T13:50:05.505Z</time></trkpt><trkpt lat="45.3539183" lon="10.6261967"><ele>183.0</ele><time>2026-03-28T13:50:06.506Z</time></trkpt><trkpt lat="45.35386" lon="10.6263833"><ele>185.0</ele><time>2026-03-28T13:50:07.502Z</time></trkpt><trkpt lat="45.3538017" lon="10.6265667"><ele>187.0</ele><time>2026-03-28T13:50:08.523Z</time></trkpt><trkpt lat="45.3537483" lon="10.62673"><ele>185.2</ele><time>2026-03-28T13:50:09.502Z</time></trkpt><trkpt lat="45.3537017" lon="10.6268783"><ele>183.39999999999998</ele><time>2026-03-28T13:50:10.504Z</time></trkpt><trkpt lat="45.35366" lon="10.62701"><ele>181.60000000000002</ele><time>2026-03-28T13:50:11.507Z</time></trkpt><trkpt lat="45.3536217" lon="10.6271317"><ele>179.8</ele><time>2026-03-28T13:50:12.504Z</time></trkpt><trkpt lat="45.3535883" lon="10.6272383"><ele>178.0</ele><time>2026-03-28T13:50:13.505Z</time></trkpt><trkpt lat="45.3535533" lon="10.62734"><ele>178.0</ele><time>2026-03-28T13:50:14.522Z</time></trkpt><trkpt lat="45.35352" lon="10.627445"><ele>178.0</ele><time>2026-03-28T13:50:15.506Z</time></trkpt><trkpt lat="45.3534817" lon="10.62755"><ele>178.0</ele><time>2026-03-28T13:50:16.506Z</time></trkpt><trkpt lat="45.3534533" lon="10.6276533"><ele>178.0</ele><time>2026-03-28T13:50:17.506Z</time></trkpt><trkpt lat="45.3534383" lon="10.6277417"><ele>178.0</ele><time>2026-03-28T13:50:18.505Z</time></trkpt><trkpt lat="45.3534317" lon="10.6279067"><ele>178.0</ele><time>2026-03-28T13:50:20.523Z</time></trkpt><trkpt lat="45.3535" lon="10.6280183"><ele>178.33333333333334</ele><time>2026-03-28T13:50:22.505Z</time></trkpt><trkpt lat="45.3535517" lon="10.6281117"><ele>178.66666666666669</ele><time>2026-03-28T13:50:24.506Z</time></trkpt><trkpt lat="45.3535283" lon="10.628205"><ele>179.0</ele><time>2026-03-28T13:50:26.506Z</time></trkpt><trkpt lat="45.3534683" lon="10.6282383"><ele>179.33333333333334</ele><time>2026-03-28T13:50:28.504Z</time></trkpt><trkpt lat="45.353345" lon="10.6282383"><ele>179.66666666666666</ele><time>2026-03-28T13:50:40.507Z</time></trkpt><trkpt lat="45.3532533" lon="10.628265"><ele>180.0</ele><time>2026-03-28T13:50:42.505Z</time></trkpt><trkpt lat="45.3531933" lon="10.628305"><ele>180.0</ele><time>2026-03-28T13:50:43.507Z</time></trkpt><trkpt lat="45.35313" lon="10.6283567"><ele>180.0</ele><time>2026-03-28T13:50:44.524Z</time></trkpt><trkpt lat="45.35307" lon="10.6284083"><ele>180.0</ele><time>2026-03-28T13:50:45.505Z</time></trkpt><trkpt lat="45.353015" lon="10.62846"><ele>180.0</ele><time>2026-03-28T13:50:46.503Z</time></trkpt><trkpt lat="45.352925" lon="10.6285467"><ele>180.0</ele><time>2026-03-28T13:50:48.505Z</time></trkpt><trkpt lat="45.3528667" lon="10.628595"><ele>180.0</ele><time>2026-03-28T13:50:50.524Z</time></trkpt><trkpt lat="45.3527883" lon="10.628655"><ele>179.0</ele><time>2026-03-28T13:50:59.503Z</time></trkpt><trkpt lat="45.3526817" lon="10.62871"><ele>178.0</ele><time>2026-03-28T13:51:14.524Z</time></trkpt><trkpt lat="45.35257" lon="10.6288033"><ele>177.0</ele><time>2026-03-28T13:51:19.502Z</time></trkpt><trkpt lat="45.35246" lon="10.628865"><ele>176.0</ele><time>2026-03-28T13:51:21.505Z</time></trkpt><trkpt lat="45.3523933" lon="10.6289083"><ele>175.0</ele><time>2026-03-28T13:51:22.502Z</time></trkpt><trkpt lat="45.35232" lon="10.62895"><ele>175.0</ele><time>2026-03-28T13:51:23.502Z</time></trkpt><trkpt lat="45.3522433" lon="10.6289967"><ele>175.0</ele><time>2026-03-28T13:51:24.5Z</time></trkpt><trkpt lat="45.352165" lon="10.6290467"><ele>175.0</ele><time>2026-03-28T13:51:25.507Z</time></trkpt><trkpt lat="45.3520817" lon="10.6290933"><ele>175.0</ele><time>2026-03-28T13:51:26.505Z</time></trkpt><trkpt lat="45.352005" lon="10.6291367"><ele>175.0</ele><time>2026-03-28T13:51:27.504Z</time></trkpt><trkpt lat="45.351925" lon="10.629175"><ele>175.0</ele><time>2026-03-28T13:51:28.499Z</time></trkpt><trkpt lat="45.3518533" lon="10.6292117"><ele>175.0</ele><time>2026-03-28T13:51:29.507Z</time></trkpt><trkpt lat="45.3517817" lon="10.6292417"><ele>175.0</ele><time>2026-03-28T13:51:30.501Z</time></trkpt><trkpt lat="45.3517133" lon="10.6292733"><ele>175.0</ele><time>2026-03-28T13:51:31.503Z</time></trkpt><trkpt lat="45.3516517" lon="10.6293067"><ele>175.0</ele><time>2026-03-28T13:51:32.501Z</time></trkpt><trkpt lat="45.3515867" lon="10.6293433"><ele>175.0</ele><time>2026-03-28T13:51:33.506Z</time></trkpt><trkpt lat="45.3515217" lon="10.629395"><ele>175.0</ele><time>2026-03-28T13:51:34.504Z</time></trkpt><trkpt lat="45.3514633" lon="10.6294633"><ele>175.0</ele><time>2026-03-28T13:51:35.506Z</time></trkpt><trkpt lat="45.3514083" lon="10.6295417"><ele>173.83333333333334</ele><time>2026-03-28T13:51:36.504Z</time></trkpt><trkpt lat="45.3513583" lon="10.6296217"><ele>172.66666666666669</ele><time>2026-03-28T13:51:37.506Z</time></trkpt><trkpt lat="45.3513117" lon="10.6296917"><ele>171.5</ele><time>2026-03-28T13:51:38.523Z</time></trkpt><trkpt lat="45.351265" lon="10.6297533"><ele>170.33333333333334</ele><time>2026-03-28T13:51:39.502Z</time></trkpt><trkpt lat="45.3512117" lon="10.6298017"><ele>169.16666666666666</ele><time>2026-03-28T13:51:40.505Z</time></trkpt><trkpt lat="45.3510967" lon="10.6298733"><ele>168.0</ele><time>2026-03-28T13:51:42.501Z</time></trkpt><trkpt lat="45.3510317" lon="10.6299083"><ele>168.0</ele><time>2026-03-28T13:51:43.503Z</time></trkpt><trkpt lat="45.3509617" lon="10.62995"><ele>168.0</ele><time>2026-03-28T13:51:44.519Z</time></trkpt><trkpt lat="45.3508833" lon="10.63"><ele>168.0</ele><time>2026-03-28T13:51:45.501Z</time></trkpt><trkpt lat="45.3508" lon="10.6300683"><ele>168.0</ele><time>2026-03-28T13:51:46.504Z</time></trkpt><trkpt lat="45.35072" lon="10.6301467"><ele>168.0</ele><time>2026-03-28T13:51:47.501Z</time></trkpt><trkpt lat="45.3506233" lon="10.6302183"><ele>167.0</ele><time>2026-03-28T13:51:48.505Z</time></trkpt><trkpt lat="45.3504967" lon="10.6302683"><ele>166.0</ele><time>2026-03-28T13:51:49.506Z</time></trkpt><trkpt lat="45.35036" lon="10.6303117"><ele>165.0</ele><time>2026-03-28T13:51:50.522Z</time></trkpt><trkpt lat="45.3502467" lon="10.6303483"><ele>164.0</ele><time>2026-03-28T13:51:51.505Z</time></trkpt><trkpt lat="45.3501783" lon="10.6303883"><ele>163.7142857142857</ele><time>2026-03-28T13:51:52.506Z</time></trkpt><trkpt lat="45.3501217" lon="10.6304317"><ele>163.42857142857142</ele><time>2026-03-28T13:51:53.501Z</time></trkpt><trkpt lat="45.3500683" lon="10.630485"><ele>163.14285714285714</ele><time>2026-03-28T13:51:54.503Z</time></trkpt><trkpt lat="45.35001" lon="10.6305367"><ele>162.85714285714283</ele><time>2026-03-28T13:51:55.502Z</time></trkpt><trkpt lat="45.3499483" lon="10.6306"><ele>162.57142857142856</ele><time>2026-03-28T13:51:56.502Z</time></trkpt><trkpt lat="45.3498867" lon="10.630675"><ele>162.28571428571428</ele><time>2026-03-28T13:51:57.5Z</time></trkpt><trkpt lat="45.3498317" lon="10.6307583"><ele>162.0</ele><time>2026-03-28T13:51:58.504Z</time></trkpt><trkpt lat="45.3497717" lon="10.630845"><ele>162.0</ele><time>2026-03-28T13:51:59.505Z</time></trkpt><trkpt lat="45.3497033" lon="10.6309383"><ele>162.0</ele><time>2026-03-28T13:52:00.502Z</time></trkpt><trkpt lat="45.3496333" lon="10.6310133"><ele>162.0</ele><time>2026-03-28T13:52:01.5Z</time></trkpt><trkpt lat="45.34956" lon="10.6311317"><ele>162.0</ele><time>2026-03-28T13:52:02.504Z</time></trkpt><trkpt lat="45.34946" lon="10.6312617"><ele>162.0</ele><time>2026-03-28T13:52:03.505Z</time></trkpt><trkpt lat="45.3493567" lon="10.631355"><ele>160.75</ele><time>2026-03-28T13:52:04.504Z</time></trkpt><trkpt lat="45.3492517" lon="10.631445"><ele>159.5</ele><time>2026-03-28T13:52:05.504Z</time></trkpt><trkpt lat="45.3491267" lon="10.6315517"><ele>158.25</ele><time>2026-03-28T13:52:06.501Z</time></trkpt><trkpt lat="45.3490183" lon="10.6316467"><ele>157.0</ele><time>2026-03-28T13:52:07.51Z</time></trkpt><trkpt lat="45.3489167" lon="10.63173"><ele>156.75</ele><time>2026-03-28T13:52:08.523Z</time></trkpt><trkpt lat="45.3488117" lon="10.6318067"><ele>156.5</ele><time>2026-03-28T13:52:09.501Z</time></trkpt><trkpt lat="45.3487017" lon="10.631865"><ele>156.25</ele><time>2026-03-28T13:52:10.506Z</time></trkpt><trkpt lat="45.3485883" lon="10.63194"><ele>156.0</ele><time>2026-03-28T13:52:11.502Z</time></trkpt><trkpt lat="45.3485133" lon="10.6320317"><ele>155.0</ele><time>2026-03-28T13:52:12.506Z</time></trkpt><trkpt lat="45.3484383" lon="10.632145"><ele>154.0</ele><time>2026-03-28T13:52:13.501Z</time></trkpt><trkpt lat="45.3483817" lon="10.6322533"><ele>153.0</ele><time>2026-03-28T13:52:14.52Z</time></trkpt><trkpt lat="45.348325" lon="10.6323667"><ele>152.0</ele><time>2026-03-28T13:52:15.5Z</time></trkpt><trkpt lat="45.3482733" lon="10.6324833"><ele>151.0</ele><time>2026-03-28T13:52:16.502Z</time></trkpt><trkpt lat="45.34821" lon="10.632585"><ele>151.0</ele><time>2026-03-28T13:52:17.505Z</time></trkpt><trkpt lat="45.3481383" lon="10.63267"><ele>151.0</ele><time>2026-03-28T13:52:18.505Z</time></trkpt><trkpt lat="45.3480633" lon="10.6327467"><ele>151.0</ele><time>2026-03-28T13:52:19.501Z</time></trkpt><trkpt lat="45.3479817" lon="10.6328267"><ele>151.0</ele><time>2026-03-28T13:52:20.52Z</time></trkpt><trkpt lat="45.347905" lon="10.6329117"><ele>151.0</ele><time>2026-03-28T13:52:21.502Z</time></trkpt><trkpt lat="45.3478233" lon="10.6329833"><ele>150.0</ele><time>2026-03-28T13:52:22.504Z</time></trkpt><trkpt lat="45.3477517" lon="10.6330583"><ele>149.0</ele><time>2026-03-28T13:52:23.504Z</time></trkpt><trkpt lat="45.3476733" lon="10.6331617"><ele>148.0</ele><time>2026-03-28T13:52:24.501Z</time></trkpt><trkpt lat="45.3475933" lon="10.6332667"><ele>147.0</ele><time>2026-03-28T13:52:25.502Z</time></trkpt><trkpt lat="45.34752" lon="10.633365"><ele>146.0</ele><time>2026-03-28T13:52:26.568Z</time></trkpt><trkpt lat="45.3474667" lon="10.6335233"><ele>144.83333333333331</ele><time>2026-03-28T13:52:27.501Z</time></trkpt><trkpt lat="45.3474167" lon="10.6336433"><ele>143.66666666666666</ele><time>2026-03-28T13:52:28.506Z</time></trkpt><trkpt lat="45.3473633" lon="10.63375"><ele>142.5</ele><time>2026-03-28T13:52:29.507Z</time></trkpt><trkpt lat="45.34731" lon="10.63384"><ele>141.33333333333334</ele><time>2026-03-28T13:52:30.504Z</time></trkpt><trkpt lat="45.3472633" lon="10.6339233"><ele>140.16666666666669</ele><time>2026-03-28T13:52:31.506Z</time></trkpt><trkpt lat="45.3472167" lon="10.634"><ele>139.0</ele><time>2026-03-28T13:52:32.503Z</time></trkpt><trkpt lat="45.3471733" lon="10.6340783"><ele>138.66666666666669</ele><time>2026-03-28T13:52:33.502Z</time></trkpt><trkpt lat="45.347145" lon="10.634165"><ele>138.33333333333334</ele><time>2026-03-28T13:52:34.504Z</time></trkpt><trkpt lat="45.347125" lon="10.634265"><ele>138.0</ele><time>2026-03-28T13:52:35.504Z</time></trkpt><trkpt lat="45.3471183" lon="10.63438"><ele>137.66666666666666</ele><time>2026-03-28T13:52:36.505Z</time></trkpt><trkpt lat="45.347115" lon="10.6345033"><ele>137.33333333333331</ele><time>2026-03-28T13:52:37.502Z</time></trkpt><trkpt lat="45.347115" lon="10.6346283"><ele>137.0</ele><time>2026-03-28T13:52:38.521Z</time></trkpt><trkpt lat="45.347115" lon="10.6347617"><ele>136.5</ele><time>2026-03-28T13:52:39.503Z</time></trkpt><trkpt lat="45.347115" lon="10.6348933"><ele>136.0</ele><time>2026-03-28T13:52:40.502Z</time></trkpt><trkpt lat="45.3471167" lon="10.6350167"><ele>135.5</ele><time>2026-03-28T13:52:41.501Z</time></trkpt><trkpt lat="45.3471167" lon="10.6351333"><ele>135.0</ele><time>2026-03-28T13:52:42.503Z</time></trkpt><trkpt lat="45.3471133" lon="10.6352417"><ele>134.5</ele><time>2026-03-28T13:52:43.504Z</time></trkpt><trkpt lat="45.3471017" lon="10.6353433"><ele>134.0</ele><time>2026-03-28T13:52:44.523Z</time></trkpt><trkpt lat="45.3470867" lon="10.6354417"><ele>133.2</ele><time>2026-03-28T13:52:45.504Z</time></trkpt><trkpt lat="45.3470633" lon="10.6355283"><ele>132.4</ele><time>2026-03-28T13:52:46.504Z</time></trkpt><trkpt lat="45.34699" lon="10.63567"><ele>131.6</ele><time>2026-03-28T13:52:48.504Z</time></trkpt><trkpt lat="45.34694" lon="10.63573"><ele>130.8</ele><time>2026-03-28T13:52:49.504Z</time></trkpt><trkpt lat="45.34686" lon="10.63583"><ele>130.0</ele><time>2026-03-28T13:52:51.503Z</time></trkpt><trkpt lat="45.34677" lon="10.6358883"><ele>130.0</ele><time>2026-03-28T13:52:53.501Z</time></trkpt><trkpt lat="45.34672" lon="10.6359917"><ele>130.0</ele><time>2026-03-28T13:52:56.501Z</time></trkpt><trkpt lat="45.346785" lon="10.6360683"><ele>130.0</ele><time>2026-03-28T13:52:59.506Z</time></trkpt><trkpt lat="45.3468667" lon="10.6360867"><ele>130.0</ele><time>2026-03-28T13:53:01.501Z</time></trkpt><trkpt lat="45.346945" lon="10.6360933"><ele>130.0</ele><time>2026-03-28T13:53:03.502Z</time></trkpt><trkpt lat="45.3470167" lon="10.63608"><ele>130.0</ele><time>2026-03-28T13:53:05.507Z</time></trkpt><trkpt lat="45.34708" lon="10.6360633"><ele>130.0</ele><time>2026-03-28T13:53:07.502Z</time></trkpt><trkpt lat="45.347145" lon="10.6360533"><ele>130.0</ele><time>2026-03-28T13:53:09.502Z</time></trkpt><trkpt lat="45.3472017" lon="10.63613"><ele>130.0</ele><time>2026-03-28T13:53:13.504Z</time></trkpt><trkpt lat="45.34718" lon="10.6362367"><ele>130.0</ele><time>2026-03-28T13:53:15.499Z</time></trkpt><trkpt lat="45.3470917" lon="10.636365"><ele>130.0</ele><time>2026-03-28T13:53:17.503Z</time></trkpt><trkpt lat="45.3470317" lon="10.6364117"><ele>130.0</ele><time>2026-03-28T13:53:18.501Z</time></trkpt><trkpt lat="45.3469517" lon="10.6364417"><ele>128.6</ele><time>2026-03-28T13:53:19.502Z</time></trkpt><trkpt lat="45.34686" lon="10.6364467"><ele>127.2</ele><time>2026-03-28T13:53:20.522Z</time></trkpt><trkpt lat="45.3467583" lon="10.6364483"><ele>125.80000000000001</ele><time>2026-03-28T13:53:21.502Z</time></trkpt><trkpt lat="45.3466483" lon="10.6364617"><ele>124.4</ele><time>2026-03-28T13:53:22.504Z</time></trkpt><trkpt lat="45.3465417" lon="10.636485"><ele>123.0</ele><time>2026-03-28T13:53:23.504Z</time></trkpt><trkpt lat="45.34643" lon="10.6365167"><ele>123.75</ele><time>2026-03-28T13:53:24.501Z</time></trkpt><trkpt lat="45.3463217" lon="10.63656"><ele>124.5</ele><time>2026-03-28T13:53:25.498Z</time></trkpt><trkpt lat="45.34622" lon="10.6366417"><ele>125.25</ele><time>2026-03-28T13:53:26.5Z</time></trkpt><trkpt lat="45.3461283" lon="10.636755"><ele>126.0</ele><time>2026-03-28T13:53:27.504Z</time></trkpt><trkpt lat="45.3460767" lon="10.6369017"><ele>125.6</ele><time>2026-03-28T13:53:28.502Z</time></trkpt><trkpt lat="45.3460433" lon="10.6371033"><ele>125.19999999999999</ele><time>2026-03-28T13:53:29.504Z</time></trkpt><trkpt lat="45.346005" lon="10.6372567"><ele>124.80000000000001</ele><time>2026-03-28T13:53:30.504Z</time></trkpt><trkpt lat="45.34596" lon="10.6373783"><ele>124.4</ele><time>2026-03-28T13:53:31.504Z</time></trkpt><trkpt lat="45.3459183" lon="10.6374917"><ele>124.0</ele><time>2026-03-28T13:53:32.499Z</time></trkpt><trkpt lat="45.3458633" lon="10.6375817"><ele>124.0</ele><time>2026-03-28T13:53:33.501Z</time></trkpt><trkpt lat="45.345805" lon="10.637645"><ele>124.0</ele><time>2026-03-28T13:53:34.499Z</time></trkpt><trkpt lat="45.345725" lon="10.6376067"><ele>124.0</ele><time>2026-03-28T13:53:35.505Z</time></trkpt><trkpt lat="45.3456317" lon="10.63756"><ele>124.0</ele><time>2026-03-28T13:53:36.505Z</time></trkpt><trkpt lat="45.34552" lon="10.6374867"><ele>124.0</ele><time>2026-03-28T13:53:37.502Z</time></trkpt><trkpt lat="45.3454183" lon="10.63742"><ele>123.5</ele><time>2026-03-28T13:53:38.522Z</time></trkpt><trkpt lat="45.3452817" lon="10.6373183"><ele>123.0</ele><time>2026-03-28T13:53:39.504Z</time></trkpt><trkpt lat="45.3451583" lon="10.6372267"><ele>122.5</ele><time>2026-03-28T13:53:40.501Z</time></trkpt><trkpt lat="45.345055" lon="10.6371433"><ele>122.0</ele><time>2026-03-28T13:53:41.504Z</time></trkpt><trkpt lat="45.344955" lon="10.63703"><ele>122.19999999999999</ele><time>2026-03-28T13:53:42.505Z</time></trkpt><trkpt lat="45.34489" lon="10.6369167"><ele>122.39999999999999</ele><time>2026-03-28T13:53:43.506Z</time></trkpt><trkpt lat="45.3448117" lon="10.6368033"><ele>122.60000000000001</ele><time>2026-03-28T13:53:44.518Z</time></trkpt><trkpt lat="45.34475" lon="10.6366717"><ele>122.80000000000001</ele><time>2026-03-28T13:53:45.504Z</time></trkpt><trkpt lat="45.3446933" lon="10.6365383"><ele>123.0</ele><time>2026-03-28T13:53:46.503Z</time></trkpt><trkpt lat="45.344635" lon="10.6364067"><ele>123.66666666666667</ele><time>2026-03-28T13:53:47.508Z</time></trkpt><trkpt lat="45.3445767" lon="10.63627"><ele>124.33333333333334</ele><time>2026-03-28T13:53:48.503Z</time></trkpt><trkpt lat="45.3445183" lon="10.636155"><ele>125.0</ele><time>2026-03-28T13:53:49.499Z</time></trkpt><trkpt lat="45.344465" lon="10.6360667"><ele>125.66666666666667</ele><time>2026-03-28T13:53:50.517Z</time></trkpt><trkpt lat="45.3444367" lon="10.63597"><ele>126.33333333333334</ele><time>2026-03-28T13:53:51.507Z</time></trkpt><trkpt lat="45.3444083" lon="10.6358767"><ele>127.0</ele><time>2026-03-28T13:53:52.501Z</time></trkpt><trkpt lat="45.3443683" lon="10.6357767"><ele>127.0</ele><time>2026-03-28T13:53:53.5Z</time></trkpt><trkpt lat="45.344315" lon="10.6356783"><ele>126.99999999999999</ele><time>2026-03-28T13:53:54.502Z</time></trkpt><trkpt lat="45.3442283" lon="10.6355483"><ele>126.99999999999999</ele><time>2026-03-28T13:53:55.505Z</time></trkpt><trkpt lat="45.3441417" lon="10.6354567"><ele>127.0</ele><time>2026-03-28T13:53:56.567Z</time></trkpt><trkpt lat="45.3440833" lon="10.63534"><ele>127.0</ele><time>2026-03-28T13:53:57.501Z</time></trkpt><trkpt lat="45.34401" lon="10.6352567"><ele>127.0</ele><time>2026-03-28T13:53:58.5Z</time></trkpt><trkpt lat="45.3439333" lon="10.6351633"><ele>126.99999999999999</ele><time>2026-03-28T13:53:59.501Z</time></trkpt><trkpt lat="45.3438483" lon="10.63506"><ele>126.99999999999999</ele><time>2026-03-28T13:54:00.507Z</time></trkpt><trkpt lat="45.3437667" lon="10.6349417"><ele>127.0</ele><time>2026-03-28T13:54:01.504Z</time></trkpt><trkpt lat="45.3437033" lon="10.6348167"><ele>127.0</ele><time>2026-03-28T13:54:02.505Z</time></trkpt><trkpt lat="45.343655" lon="10.63467"><ele>125.0</ele><time>2026-03-28T13:54:03.501Z</time></trkpt><trkpt lat="45.3436217" lon="10.6344717"><ele>123.0</ele><time>2026-03-28T13:54:04.505Z</time></trkpt><trkpt lat="45.34358" lon="10.6342783"><ele>121.0</ele><time>2026-03-28T13:54:05.502Z</time></trkpt><trkpt lat="45.343565" lon="10.6341283"><ele>119.0</ele><time>2026-03-28T13:54:06.505Z</time></trkpt><trkpt lat="45.3435517" lon="10.6339783"><ele>119.0</ele><time>2026-03-28T13:54:07.505Z</time></trkpt><trkpt lat="45.3435217" lon="10.63383"><ele>119.0</ele><time>2026-03-28T13:54:08.521Z</time></trkpt><trkpt lat="45.34352" lon="10.6336933"><ele>119.0</ele><time>2026-03-28T13:54:09.5Z</time></trkpt><trkpt lat="45.3435317" lon="10.633575"><ele>119.0</ele><time>2026-03-28T13:54:10.502Z</time></trkpt><trkpt lat="45.343575" lon="10.6334567"><ele>119.0</ele><time>2026-03-28T13:54:11.5Z</time></trkpt><trkpt lat="45.3436167" lon="10.6333283"><ele>121.25</ele><time>2026-03-28T13:54:12.504Z</time></trkpt><trkpt lat="45.3436733" lon="10.6331883"><ele>123.5</ele><time>2026-03-28T13:54:13.504Z</time></trkpt><trkpt lat="45.3437167" lon="10.6330367"><ele>125.75</ele><time>2026-03-28T13:54:14.519Z</time></trkpt><trkpt lat="45.3437483" lon="10.63287"><ele>128.0</ele><time>2026-03-28T13:54:15.5Z</time></trkpt><trkpt lat="45.34376" lon="10.6326983"><ele>129.75</ele><time>2026-03-28T13:54:16.504Z</time></trkpt><trkpt lat="45.3437683" lon="10.6325233"><ele>131.5</ele><time>2026-03-28T13:54:17.504Z</time></trkpt><trkpt lat="45.3437817" lon="10.6323467"><ele>133.25</ele><time>2026-03-28T13:54:18.505Z</time></trkpt><trkpt lat="45.3437983" lon="10.6321633"><ele>135.0</ele><time>2026-03-28T13:54:19.501Z</time></trkpt><trkpt lat="45.3438167" lon="10.6319783"><ele>135.5</ele><time>2026-03-28T13:54:20.522Z</time></trkpt><trkpt lat="45.343835" lon="10.631795"><ele>136.0</ele><time>2026-03-28T13:54:21.504Z</time></trkpt><trkpt lat="45.3438517" lon="10.631615"><ele>136.5</ele><time>2026-03-28T13:54:22.503Z</time></trkpt><trkpt lat="45.3438733" lon="10.6314433"><ele>137.0</ele><time>2026-03-28T13:54:23.501Z</time></trkpt><trkpt lat="45.3438933" lon="10.631285"><ele>136.79999999999998</ele><time>2026-03-28T13:54:24.504Z</time></trkpt><trkpt lat="45.34391" lon="10.6311417"><ele>136.6</ele><time>2026-03-28T13:54:25.503Z</time></trkpt><trkpt lat="45.3439417" lon="10.6309983"><ele>136.39999999999998</ele><time>2026-03-28T13:54:26.504Z</time></trkpt><trkpt lat="45.34398" lon="10.63085"><ele>136.2</ele><time>2026-03-28T13:54:27.502Z</time></trkpt><trkpt lat="45.34403" lon="10.6306967"><ele>136.0</ele><time>2026-03-28T13:54:28.503Z</time></trkpt><trkpt lat="45.344105" lon="10.63054"><ele>136.0</ele><time>2026-03-28T13:54:29.5Z</time></trkpt><trkpt lat="45.3441783" lon="10.6303933"><ele>136.0</ele><time>2026-03-28T13:54:30.501Z</time></trkpt><trkpt lat="45.344245" lon="10.6302667"><ele>136.0</ele><time>2026-03-28T13:54:31.5Z</time></trkpt><trkpt lat="45.344305" lon="10.6301567"><ele>136.0</ele><time>2026-03-28T13:54:32.505Z</time></trkpt><trkpt lat="45.3443683" lon="10.63006"><ele>136.0</ele><time>2026-03-28T13:54:33.502Z</time></trkpt><trkpt lat="45.3444117" lon="10.62999"><ele>135.66666666666669</ele><time>2026-03-28T13:54:34.5Z</time></trkpt><trkpt lat="45.344435" lon="10.6298733"><ele>135.33333333333334</ele><time>2026-03-28T13:54:37.503Z</time></trkpt><trkpt lat="45.3443767" lon="10.6297967"><ele>135.0</ele><time>2026-03-28T13:54:40.502Z</time></trkpt><trkpt lat="45.3442967" lon="10.6297433"><ele>134.66666666666666</ele><time>2026-03-28T13:54:42.506Z</time></trkpt><trkpt lat="45.3442133" lon="10.6297333"><ele>134.33333333333331</ele><time>2026-03-28T13:54:44.524Z</time></trkpt><trkpt lat="45.344135" lon="10.629745"><ele>134.0</ele><time>2026-03-28T13:54:46.504Z</time></trkpt><trkpt lat="45.3440467" lon="10.6298133"><ele>134.0</ele><time>2026-03-28T13:54:48.506Z</time></trkpt><trkpt lat="45.343995" lon="10.6298667"><ele>134.0</ele><time>2026-03-28T13:54:49.502Z</time></trkpt><trkpt lat="45.3439367" lon="10.6299333"><ele>134.0</ele><time>2026-03-28T13:54:50.52Z</time></trkpt><trkpt lat="45.34387" lon="10.6300167"><ele>134.0</ele><time>2026-03-28T13:54:51.5Z</time></trkpt><trkpt lat="45.3437933" lon="10.6301083"><ele>134.0</ele><time>2026-03-28T13:54:52.503Z</time></trkpt><trkpt lat="45.3437117" lon="10.6302033"><ele>134.0</ele><time>2026-03-28T13:54:53.506Z</time></trkpt><trkpt lat="45.343615" lon="10.6303133"><ele>133.66666666666666</ele><time>2026-03-28T13:54:54.504Z</time></trkpt><trkpt lat="45.3435067" lon="10.630425"><ele>133.33333333333334</ele><time>2026-03-28T13:54:55.505Z</time></trkpt><trkpt lat="45.3433717" lon="10.63056"><ele>133.0</ele><time>2026-03-28T13:54:56.57Z</time></trkpt><trkpt lat="45.3432167" lon="10.6307117"><ele>133.0</ele><time>2026-03-28T13:54:57.502Z</time></trkpt><trkpt lat="45.3430517" lon="10.6308667"><ele>133.0</ele><time>2026-03-28T13:54:58.501Z</time></trkpt><trkpt lat="45.3428667" lon="10.6310267"><ele>133.0</ele><time>2026-03-28T13:54:59.504Z</time></trkpt><trkpt lat="45.342685" lon="10.631175"><ele>132.66666666666669</ele><time>2026-03-28T13:55:00.503Z</time></trkpt><trkpt lat="45.3424883" lon="10.6313317"><ele>132.33333333333334</ele><time>2026-03-28T13:55:01.504Z</time></trkpt><trkpt lat="45.3423583" lon="10.6314483"><ele>132.0</ele><time>2026-03-28T13:55:02.507Z</time></trkpt><trkpt lat="45.342255" lon="10.6315733"><ele>130.5</ele><time>2026-03-28T13:55:03.504Z</time></trkpt><trkpt lat="45.3421583" lon="10.6317117"><ele>129.0</ele><time>2026-03-28T13:55:04.504Z</time></trkpt><trkpt lat="45.34207" lon="10.6318767"><ele>127.5</ele><time>2026-03-28T13:55:05.504Z</time></trkpt><trkpt lat="45.34198" lon="10.6320667"><ele>126.0</ele><time>2026-03-28T13:55:06.502Z</time></trkpt><trkpt lat="45.3418817" lon="10.6322717"><ele>126.0</ele><time>2026-03-28T13:55:07.504Z</time></trkpt><trkpt lat="45.3418167" lon="10.63251"><ele>126.0</ele><time>2026-03-28T13:55:08.52Z</time></trkpt><trkpt lat="45.3417267" lon="10.6326983"><ele>126.0</ele><time>2026-03-28T13:55:09.501Z</time></trkpt><trkpt lat="45.3416367" lon="10.6328667"><ele>125.5</ele><time>2026-03-28T13:55:10.505Z</time></trkpt><trkpt lat="45.3415467" lon="10.6330167"><ele>125.0</ele><time>2026-03-28T13:55:11.501Z</time></trkpt><trkpt lat="45.341455" lon="10.6331467"><ele>124.5</ele><time>2026-03-28T13:55:12.503Z</time></trkpt><trkpt lat="45.3413717" lon="10.633265"><ele>124.0</ele><time>2026-03-28T13:55:13.5Z</time></trkpt><trkpt lat="45.3412867" lon="10.63337"><ele>124.0</ele><time>2026-03-28T13:55:14.521Z</time></trkpt><trkpt lat="45.3411983" lon="10.6334467"><ele>124.0</ele><time>2026-03-28T13:55:15.503Z</time></trkpt><trkpt lat="45.3411033" lon="10.6335"><ele>124.0</ele><time>2026-03-28T13:55:16.505Z</time></trkpt><trkpt lat="45.34101" lon="10.6335483"><ele>124.0</ele><time>2026-03-28T13:55:17.503Z</time></trkpt><trkpt lat="45.3409217" lon="10.633595"><ele>124.0</ele><time>2026-03-28T13:55:18.503Z</time></trkpt><trkpt lat="45.34083" lon="10.6336433"><ele>123.80000000000001</ele><time>2026-03-28T13:55:19.5Z</time></trkpt><trkpt lat="45.3407333" lon="10.6336883"><ele>123.60000000000001</ele><time>2026-03-28T13:55:20.52Z</time></trkpt><trkpt lat="45.3406367" lon="10.63374"><ele>123.4</ele><time>2026-03-28T13:55:21.501Z</time></trkpt><trkpt lat="45.3405383" lon="10.6337967"><ele>123.2</ele><time>2026-03-28T13:55:22.505Z</time></trkpt><trkpt lat="45.340425" lon="10.6338383"><ele>123.0</ele><time>2026-03-28T13:55:23.5Z</time></trkpt><trkpt lat="45.340315" lon="10.633875"><ele>123.0</ele><time>2026-03-28T13:55:24.501Z</time></trkpt><trkpt lat="45.3402083" lon="10.6339067"><ele>123.00000000000001</ele><time>2026-03-28T13:55:25.504Z</time></trkpt><trkpt lat="45.34011" lon="10.633945"><ele>123.00000000000001</ele><time>2026-03-28T13:55:26.502Z</time></trkpt><trkpt lat="45.3400033" lon="10.63397"><ele>123.0</ele><time>2026-03-28T13:55:27.501Z</time></trkpt><trkpt lat="45.3398867" lon="10.6339783"><ele>123.0</ele><time>2026-03-28T13:55:28.504Z</time></trkpt><trkpt lat="45.339775" lon="10.6340017"><ele>122.2</ele><time>2026-03-28T13:55:29.504Z</time></trkpt><trkpt lat="45.339665" lon="10.6340317"><ele>121.4</ele><time>2026-03-28T13:55:30.504Z</time></trkpt><trkpt lat="45.339575" lon="10.6340717"><ele>120.60000000000001</ele><time>2026-03-28T13:55:31.499Z</time></trkpt><trkpt lat="45.33948" lon="10.6341017"><ele>119.80000000000001</ele><time>2026-03-28T13:55:32.506Z</time></trkpt><trkpt lat="45.3393933" lon="10.6341383"><ele>119.0</ele><time>2026-03-28T13:55:33.503Z</time></trkpt><trkpt lat="45.33931" lon="10.6341683"><ele>118.99999999999999</ele><time>2026-03-28T13:55:34.505Z</time></trkpt><trkpt lat="45.3392483" lon="10.6342083"><ele>119.0</ele><time>2026-03-28T13:55:35.506Z</time></trkpt><trkpt lat="45.3391867" lon="10.6342333"><ele>119.0</ele><time>2026-03-28T13:55:36.506Z</time></trkpt><trkpt lat="45.339095" lon="10.6342517"><ele>119.0</ele><time>2026-03-28T13:55:38.522Z</time></trkpt><trkpt lat="45.3390233" lon="10.6342117"><ele>118.99999999999999</ele><time>2026-03-28T13:55:40.505Z</time></trkpt><trkpt lat="45.3389683" lon="10.634135"><ele>119.0</ele><time>2026-03-28T13:55:42.505Z</time></trkpt><trkpt lat="45.3389033" lon="10.6340633"><ele>118.0</ele><time>2026-03-28T13:55:44.523Z</time></trkpt><trkpt lat="45.3388233" lon="10.634055"><ele>117.0</ele><time>2026-03-28T13:55:46.5Z</time></trkpt><trkpt lat="45.3386983" lon="10.6341267"><ele>116.0</ele><time>2026-03-28T13:55:48.504Z</time></trkpt><trkpt lat="45.3386167" lon="10.6342017"><ele>115.0</ele><time>2026-03-28T13:55:49.502Z</time></trkpt><trkpt lat="45.3385267" lon="10.6342883"><ele>114.0</ele><time>2026-03-28T13:55:50.529Z</time></trkpt><trkpt lat="45.3384267" lon="10.6343817"><ele>113.5</ele><time>2026-03-28T13:55:51.5Z</time></trkpt><trkpt lat="45.3383233" lon="10.6344917"><ele>113.0</ele><time>2026-03-28T13:55:52.503Z</time></trkpt><trkpt lat="45.3382217" lon="10.6346017"><ele>112.5</ele><time>2026-03-28T13:55:53.504Z</time></trkpt><trkpt lat="45.3381183" lon="10.6347067"><ele>112.0</ele><time>2026-03-28T13:55:54.506Z</time></trkpt><trkpt lat="45.3380017" lon="10.6348017"><ele>112.0</ele><time>2026-03-28T13:55:55.5Z</time></trkpt><trkpt lat="45.337905" lon="10.634895"><ele>111.99999999999999</ele><time>2026-03-28T13:55:56.505Z</time></trkpt><trkpt lat="45.337815" lon="10.63498"><ele>111.99999999999999</ele><time>2026-03-28T13:55:57.499Z</time></trkpt><trkpt lat="45.3377333" lon="10.635055"><ele>112.0</ele><time>2026-03-28T13:55:58.505Z</time></trkpt><trkpt lat="45.3376517" lon="10.6351183"><ele>112.0</ele><time>2026-03-28T13:55:59.505Z</time></trkpt><trkpt lat="45.3376017" lon="10.6351817"><ele>112.0</ele><time>2026-03-28T13:56:00.499Z</time></trkpt><trkpt lat="45.3375533" lon="10.6352467"><ele>111.99999999999999</ele><time>2026-03-28T13:56:01.503Z</time></trkpt><trkpt lat="45.3374683" lon="10.63536"><ele>111.99999999999999</ele><time>2026-03-28T13:56:03.499Z</time></trkpt><trkpt lat="45.3373783" lon="10.6354"><ele>112.0</ele><time>2026-03-28T13:56:05.504Z</time></trkpt><trkpt lat="45.3372867" lon="10.6353583"><ele>112.0</ele><time>2026-03-28T13:56:07.5Z</time></trkpt><trkpt lat="45.3371817" lon="10.6352533"><ele>110.83333333333334</ele><time>2026-03-28T13:56:09.5Z</time></trkpt><trkpt lat="45.3371183" lon="10.6351867"><ele>109.66666666666667</ele><time>2026-03-28T13:56:10.503Z</time></trkpt><trkpt lat="45.3370517" lon="10.6351183"><ele>108.5</ele><time>2026-03-28T13:56:11.503Z</time></trkpt><trkpt lat="45.3369817" lon="10.6350633"><ele>107.33333333333334</ele><time>2026-03-28T13:56:12.504Z</time></trkpt><trkpt lat="45.3369067" lon="10.6349767"><ele>106.16666666666667</ele><time>2026-03-28T13:56:13.504Z</time></trkpt><trkpt lat="45.3368383" lon="10.6349017"><ele>105.0</ele><time>2026-03-28T13:56:14.52Z</time></trkpt><trkpt lat="45.3367767" lon="10.6348167"><ele>105.0</ele><time>2026-03-28T13:56:15.504Z</time></trkpt><trkpt lat="45.3367267" lon="10.63473"><ele>105.0</ele><time>2026-03-28T13:56:16.5Z</time></trkpt><trkpt lat="45.33668" lon="10.6346467"><ele>105.0</ele><time>2026-03-28T13:56:17.505Z</time></trkpt><trkpt lat="45.3366333" lon="10.6345717"><ele>105.0</ele><time>2026-03-28T13:56:18.502Z</time></trkpt><trkpt lat="45.33658" lon="10.634515"><ele>105.0</ele><time>2026-03-28T13:56:19.503Z</time></trkpt><trkpt lat="45.3364617" lon="10.6344583"><ele>105.0</ele><time>2026-03-28T13:56:21.501Z</time></trkpt><trkpt lat="45.336385" lon="10.634455"><ele>104.5</ele><time>2026-03-28T13:56:22.503Z</time></trkpt><trkpt lat="45.33629" lon="10.63448"><ele>104.0</ele><time>2026-03-28T13:56:23.499Z</time></trkpt><trkpt lat="45.3361883" lon="10.6345167"><ele>103.5</ele><time>2026-03-28T13:56:24.5Z</time></trkpt><trkpt lat="45.3360983" lon="10.6345517"><ele>103.0</ele><time>2026-03-28T13:56:25.504Z</time></trkpt><trkpt lat="45.33602" lon="10.6345917"><ele>102.5</ele><time>2026-03-28T13:56:26.503Z</time></trkpt><trkpt lat="45.33596" lon="10.6346433"><ele>102.0</ele><time>2026-03-28T13:56:27.499Z</time></trkpt><trkpt lat="45.3359017" lon="10.6347083"><ele>102.0</ele><time>2026-03-28T13:56:28.499Z</time></trkpt><trkpt lat="45.3358417" lon="10.6347867"><ele>102.0</ele><time>2026-03-28T13:56:29.503Z</time></trkpt><trkpt lat="45.3357833" lon="10.6348983"><ele>102.0</ele><time>2026-03-28T13:56:30.504Z</time></trkpt><trkpt lat="45.3357283" lon="10.6350133"><ele>102.0</ele><time>2026-03-28T13:56:31.497Z</time></trkpt><trkpt lat="45.33567" lon="10.63515"><ele>102.0</ele><time>2026-03-28T13:56:32.504Z</time></trkpt><trkpt lat="45.3356083" lon="10.6352967"><ele>101.39999999999999</ele><time>2026-03-28T13:56:33.499Z</time></trkpt><trkpt lat="45.335555" lon="10.6354417"><ele>100.8</ele><time>2026-03-28T13:56:34.501Z</time></trkpt><trkpt lat="45.3355033" lon="10.6355767"><ele>100.2</ele><time>2026-03-28T13:56:35.502Z</time></trkpt><trkpt lat="45.33545" lon="10.6357033"><ele>99.6</ele><time>2026-03-28T13:56:36.503Z</time></trkpt><trkpt lat="45.3353933" lon="10.6358267"><ele>99.0</ele><time>2026-03-28T13:56:37.499Z</time></trkpt><trkpt lat="45.3353283" lon="10.6359367"><ele>98.5</ele><time>2026-03-28T13:56:38.52Z</time></trkpt><trkpt lat="45.3352517" lon="10.63604"><ele>98.0</ele><time>2026-03-28T13:56:39.5Z</time></trkpt><trkpt lat="45.3351733" lon="10.6361683"><ele>97.5</ele><time>2026-03-28T13:56:40.499Z</time></trkpt><trkpt lat="45.3350817" lon="10.6362783"><ele>97.0</ele><time>2026-03-28T13:56:41.504Z</time></trkpt><trkpt lat="45.33498" lon="10.6363667"><ele>97.0</ele><time>2026-03-28T13:56:42.502Z</time></trkpt><trkpt lat="45.3348933" lon="10.6364683"><ele>97.0</ele><time>2026-03-28T13:56:43.502Z</time></trkpt><trkpt lat="45.3348133" lon="10.6365483"><ele>97.0</ele><time>2026-03-28T13:56:44.52Z</time></trkpt><trkpt lat="45.3347383" lon="10.6366533"><ele>97.0</ele><time>2026-03-28T13:56:45.502Z</time></trkpt><trkpt lat="45.3346733" lon="10.63676"><ele>97.0</ele><time>2026-03-28T13:56:46.503Z</time></trkpt><trkpt lat="45.3346083" lon="10.6368517"><ele>97.00000000000001</ele><time>2026-03-28T13:56:47.504Z</time></trkpt><trkpt lat="45.3345533" lon="10.6369333"><ele>97.0</ele><time>2026-03-28T13:56:48.501Z</time></trkpt><trkpt lat="45.3345067" lon="10.6370183"><ele>97.0</ele><time>2026-03-28T13:56:49.504Z</time></trkpt><trkpt lat="45.3344383" lon="10.6371567"><ele>97.0</ele><time>2026-03-28T13:56:50.519Z</time></trkpt><trkpt lat="45.334385" lon="10.6372633"><ele>97.00000000000001</ele><time>2026-03-28T13:56:51.504Z</time></trkpt><trkpt lat="45.3343367" lon="10.6373533"><ele>97.0</ele><time>2026-03-28T13:56:52.502Z</time></trkpt><trkpt lat="45.334285" lon="10.6374483"><ele>97.16666666666667</ele><time>2026-03-28T13:56:53.499Z</time></trkpt><trkpt lat="45.3342317" lon="10.6375233"><ele>97.33333333333334</ele><time>2026-03-28T13:56:54.502Z</time></trkpt><trkpt lat="45.3341717" lon="10.6375917"><ele>97.5</ele><time>2026-03-28T13:56:55.498Z</time></trkpt><trkpt lat="45.3341033" lon="10.63765"><ele>97.66666666666666</ele><time>2026-03-28T13:56:56.505Z</time></trkpt><trkpt lat="45.3340217" lon="10.6377"><ele>97.83333333333333</ele><time>2026-03-28T13:56:57.505Z</time></trkpt><trkpt lat="45.3339333" lon="10.6377517"><ele>98.0</ele><time>2026-03-28T13:56:58.503Z</time></trkpt><trkpt lat="45.3338383" lon="10.6378017"><ele>96.2</ele><time>2026-03-28T13:56:59.503Z</time></trkpt><trkpt lat="45.333745" lon="10.6378483"><ele>94.4</ele><time>2026-03-28T13:57:00.499Z</time></trkpt><trkpt lat="45.3336433" lon="10.6378917"><ele>92.60000000000001</ele><time>2026-03-28T13:57:01.504Z</time></trkpt><trkpt lat="45.3335383" lon="10.6379317"><ele>90.80000000000001</ele><time>2026-03-28T13:57:02.501Z</time></trkpt><trkpt lat="45.333435" lon="10.6379783"><ele>89.0</ele><time>2026-03-28T13:57:03.505Z</time></trkpt><trkpt lat="45.3333367" lon="10.638035"><ele>89.0</ele><time>2026-03-28T13:57:04.503Z</time></trkpt><trkpt lat="45.3332417" lon="10.638105"><ele>89.0</ele><time>2026-03-28T13:57:05.5Z</time></trkpt><trkpt lat="45.3331567" lon="10.6381733"><ele>89.0</ele><time>2026-03-28T13:57:06.505Z</time></trkpt><trkpt lat="45.333075" lon="10.6382417"><ele>89.0</ele><time>2026-03-28T13:57:07.501Z</time></trkpt><trkpt lat="45.332995" lon="10.638315"><ele>89.0</ele><time>2026-03-28T13:57:08.517Z</time></trkpt><trkpt lat="45.3329183" lon="10.63838"><ele>88.4</ele><time>2026-03-28T13:57:09.499Z</time></trkpt><trkpt lat="45.3328433" lon="10.6384433"><ele>87.80000000000001</ele><time>2026-03-28T13:57:10.502Z</time></trkpt><trkpt lat="45.3327683" lon="10.638515"><ele>87.19999999999999</ele><time>2026-03-28T13:57:11.504Z</time></trkpt><trkpt lat="45.3326883" lon="10.6385767"><ele>86.6</ele><time>2026-03-28T13:57:12.502Z</time></trkpt><trkpt lat="45.3326" lon="10.6386417"><ele>86.0</ele><time>2026-03-28T13:57:13.499Z</time></trkpt><trkpt lat="45.33251" lon="10.6387"><ele>86.0</ele><time>2026-03-28T13:57:14.519Z</time></trkpt><trkpt lat="45.332415" lon="10.6387533"><ele>86.0</ele><time>2026-03-28T13:57:15.505Z</time></trkpt><trkpt lat="45.33233" lon="10.6388117"><ele>86.0</ele><time>2026-03-28T13:57:16.503Z</time></trkpt><trkpt lat="45.3322533" lon="10.6388583"><ele>86.0</ele><time>2026-03-28T13:57:17.498Z</time></trkpt><trkpt lat="45.3321817" lon="10.6389033"><ele>86.0</ele><time>2026-03-28T13:57:18.502Z</time></trkpt><trkpt lat="45.3321233" lon="10.6389433"><ele>86.0</ele><time>2026-03-28T13:57:19.499Z</time></trkpt><trkpt lat="45.3320417" lon="10.6390667"><ele>85.66666666666667</ele><time>2026-03-28T13:57:21.497Z</time></trkpt><trkpt lat="45.33195" lon="10.639185"><ele>85.33333333333334</ele><time>2026-03-28T13:57:23.502Z</time></trkpt><trkpt lat="45.3318983" lon="10.6392517"><ele>85.0</ele><time>2026-03-28T13:57:24.506Z</time></trkpt><trkpt lat="45.3318333" lon="10.6393433"><ele>84.66666666666667</ele><time>2026-03-28T13:57:25.502Z</time></trkpt><trkpt lat="45.3317683" lon="10.63944"><ele>84.33333333333333</ele><time>2026-03-28T13:57:26.565Z</time></trkpt><trkpt lat="45.3317233" lon="10.63951"><ele>84.0</ele><time>2026-03-28T13:57:27.499Z</time></trkpt><trkpt lat="45.3316617" lon="10.6396317"><ele>84.0</ele><time>2026-03-28T13:57:29.504Z</time></trkpt><trkpt lat="45.3316233" lon="10.639755"><ele>84.0</ele><time>2026-03-28T13:57:31.498Z</time></trkpt><trkpt lat="45.3315833" lon="10.6398467"><ele>84.0</ele><time>2026-03-28T13:57:33.501Z</time></trkpt><trkpt lat="45.331535" lon="10.6399067"><ele>84.0</ele><time>2026-03-28T13:57:35.5Z</time></trkpt><trkpt lat="45.3314467" lon="10.639905"><ele>84.0</ele><time>2026-03-28T13:57:37.505Z</time></trkpt><trkpt lat="45.3313217" lon="10.6398883"><ele>84.0</ele><time>2026-03-28T13:57:39.505Z</time></trkpt><trkpt lat="45.3312483" lon="10.639875"><ele>84.75</ele><time>2026-03-28T13:57:40.497Z</time></trkpt><trkpt lat="45.3311533" lon="10.639865"><ele>85.5</ele><time>2026-03-28T13:57:41.503Z</time></trkpt><trkpt lat="45.331045" lon="10.6398583"><ele>86.25</ele><time>2026-03-28T13:57:42.504Z</time></trkpt><trkpt lat="45.3309217" lon="10.6398583"><ele>87.0</ele><time>2026-03-28T13:57:43.502Z</time></trkpt><trkpt lat="45.3307917" lon="10.639855"><ele>87.0</ele><time>2026-03-28T13:57:44.521Z</time></trkpt><trkpt lat="45.33064" lon="10.6398383"><ele>87.0</ele><time>2026-03-28T13:57:45.5Z</time></trkpt><trkpt lat="45.3304917" lon="10.6398067"><ele>87.0</ele><time>2026-03-28T13:57:46.505Z</time></trkpt><trkpt lat="45.33034" lon="10.6397683"><ele>87.0</ele><time>2026-03-28T13:57:47.5Z</time></trkpt><trkpt lat="45.33019" lon="10.6397233"><ele>87.0</ele><time>2026-03-28T13:57:48.503Z</time></trkpt><trkpt lat="45.3300467" lon="10.6396833"><ele>87.0</ele><time>2026-03-28T13:57:49.501Z</time></trkpt><trkpt lat="45.3299183" lon="10.6396567"><ele>87.0</ele><time>2026-03-28T13:57:50.524Z</time></trkpt><trkpt lat="45.3297983" lon="10.639655"><ele>86.0</ele><time>2026-03-28T13:57:51.501Z</time></trkpt><trkpt lat="45.3296883" lon="10.6396883"><ele>85.0</ele><time>2026-03-28T13:57:52.502Z</time></trkpt><trkpt lat="45.3295917" lon="10.6397417"><ele>84.0</ele><time>2026-03-28T13:57:53.503Z</time></trkpt><trkpt lat="45.32951" lon="10.6398117"><ele>83.0</ele><time>2026-03-28T13:57:54.502Z</time></trkpt><trkpt lat="45.3294283" lon="10.6398817"><ele>82.0</ele><time>2026-03-28T13:57:55.5Z</time></trkpt><trkpt lat="45.3293583" lon="10.639965"><ele>82.0</ele><time>2026-03-28T13:57:57.503Z</time></trkpt><trkpt lat="45.329335" lon="10.64005"><ele>82.0</ele><time>2026-03-28T13:58:00.501Z</time></trkpt><trkpt lat="45.329335" lon="10.64017"><ele>82.0</ele><time>2026-03-28T13:58:02.502Z</time></trkpt><trkpt lat="45.32936" lon="10.640305"><ele>82.0</ele><time>2026-03-28T13:58:03.502Z</time></trkpt><trkpt lat="45.329385" lon="10.64044"><ele>82.0</ele><time>2026-03-28T13:58:04.501Z</time></trkpt><trkpt lat="45.3294233" lon="10.6406017"><ele>82.25</ele><time>2026-03-28T13:58:05.506Z</time></trkpt><trkpt lat="45.3294583" lon="10.6407767"><ele>82.5</ele><time>2026-03-28T13:58:06.501Z</time></trkpt><trkpt lat="45.3294883" lon="10.6409517"><ele>82.75</ele><time>2026-03-28T13:58:07.501Z</time></trkpt><trkpt lat="45.329505" lon="10.641135"><ele>83.0</ele><time>2026-03-28T13:58:08.528Z</time></trkpt><trkpt lat="45.3295083" lon="10.6413167"><ele>83.0</ele><time>2026-03-28T13:58:09.498Z</time></trkpt><trkpt lat="45.3294817" lon="10.6415183"><ele>83.0</ele><time>2026-03-28T13:58:10.504Z</time></trkpt><trkpt lat="45.3294283" lon="10.6417067"><ele>83.0</ele><time>2026-03-28T13:58:11.498Z</time></trkpt><trkpt lat="45.3293433" lon="10.6419033"><ele>83.0</ele><time>2026-03-28T13:58:12.499Z</time></trkpt><trkpt lat="45.3292617" lon="10.6421133"><ele>82.66666666666667</ele><time>2026-03-28T13:58:13.5Z</time></trkpt><trkpt lat="45.3292" lon="10.6423417"><ele>82.33333333333333</ele><time>2026-03-28T13:58:14.527Z</time></trkpt><trkpt lat="45.3291517" lon="10.6425833"><ele>82.0</ele><time>2026-03-28T13:58:15.499Z</time></trkpt><trkpt lat="45.3291167" lon="10.6428433"><ele>82.66666666666666</ele><time>2026-03-28T13:58:16.503Z</time></trkpt><trkpt lat="45.3290917" lon="10.64311"><ele>83.33333333333333</ele><time>2026-03-28T13:58:17.501Z</time></trkpt><trkpt lat="45.32907" lon="10.6433667"><ele>84.0</ele><time>2026-03-28T13:58:18.5Z</time></trkpt><trkpt lat="45.3290533" lon="10.643615"><ele>83.66666666666667</ele><time>2026-03-28T13:58:19.501Z</time></trkpt><trkpt lat="45.329045" lon="10.64385"><ele>83.33333333333334</ele><time>2026-03-28T13:58:20.526Z</time></trkpt><trkpt lat="45.32904" lon="10.6440717"><ele>83.0</ele><time>2026-03-28T13:58:21.499Z</time></trkpt><trkpt lat="45.3290333" lon="10.6442783"><ele>83.5</ele><time>2026-03-28T13:58:22.503Z</time></trkpt><trkpt lat="45.3290267" lon="10.6444717"><ele>84.0</ele><time>2026-03-28T13:58:23.501Z</time></trkpt><trkpt lat="45.329025" lon="10.6446517"><ele>84.5</ele><time>2026-03-28T13:58:24.503Z</time></trkpt><trkpt lat="45.329025" lon="10.64482"><ele>85.0</ele><time>2026-03-28T13:58:25.503Z</time></trkpt><trkpt lat="45.3290233" lon="10.64498"><ele>85.0</ele><time>2026-03-28T13:58:26.5Z</time></trkpt><trkpt lat="45.3290217" lon="10.64514"><ele>85.0</ele><time>2026-03-28T13:58:27.504Z</time></trkpt><trkpt lat="45.3290183" lon="10.6452983"><ele>85.0</ele><time>2026-03-28T13:58:28.503Z</time></trkpt><trkpt lat="45.3290167" lon="10.6454567"><ele>85.0</ele><time>2026-03-28T13:58:29.502Z</time></trkpt><trkpt lat="45.3290117" lon="10.6456117"><ele>85.0</ele><time>2026-03-28T13:58:30.503Z</time></trkpt><trkpt lat="45.329" lon="10.6457617"><ele>85.33333333333333</ele><time>2026-03-28T13:58:31.505Z</time></trkpt><trkpt lat="45.3289867" lon="10.6459"><ele>85.66666666666666</ele><time>2026-03-28T13:58:32.503Z</time></trkpt><trkpt lat="45.3289733" lon="10.6460183"><ele>86.0</ele><time>2026-03-28T13:58:33.507Z</time></trkpt><trkpt lat="45.3289617" lon="10.6461133"><ele>86.33333333333333</ele><time>2026-03-28T13:58:34.499Z</time></trkpt><trkpt lat="45.3289383" lon="10.6462133"><ele>86.66666666666667</ele><time>2026-03-28T13:58:36.504Z</time></trkpt><trkpt lat="45.3288967" lon="10.6463167"><ele>87.0</ele><time>2026-03-28T13:58:39.504Z</time></trkpt><trkpt lat="45.328855" lon="10.64644"><ele>87.39999999999999</ele><time>2026-03-28T13:58:41.503Z</time></trkpt><trkpt lat="45.3288233" lon="10.6465217"><ele>87.8</ele><time>2026-03-28T13:58:42.503Z</time></trkpt><trkpt lat="45.3287883" lon="10.6466217"><ele>88.2</ele><time>2026-03-28T13:58:43.503Z</time></trkpt><trkpt lat="45.3287467" lon="10.6467383"><ele>88.6</ele><time>2026-03-28T13:58:44.526Z</time></trkpt><trkpt lat="45.3286833" lon="10.6468783"><ele>89.0</ele><time>2026-03-28T13:58:45.498Z</time></trkpt><trkpt lat="45.3286117" lon="10.6470183"><ele>89.0</ele><time>2026-03-28T13:58:46.501Z</time></trkpt><trkpt lat="45.3285317" lon="10.6471717"><ele>89.0</ele><time>2026-03-28T13:58:47.504Z</time></trkpt><trkpt lat="45.3284383" lon="10.647325"><ele>89.0</ele><time>2026-03-28T13:58:48.503Z</time></trkpt><trkpt lat="45.3283333" lon="10.647485"><ele>89.0</ele><time>2026-03-28T13:58:49.505Z</time></trkpt><trkpt lat="45.3282" lon="10.6476533"><ele>88.66666666666667</ele><time>2026-03-28T13:58:50.527Z</time></trkpt><trkpt lat="45.328085" lon="10.6478533"><ele>88.33333333333333</ele><time>2026-03-28T13:58:51.505Z</time></trkpt><trkpt lat="45.3279667" lon="10.6480483"><ele>88.0</ele><time>2026-03-28T13:58:52.504Z</time></trkpt><trkpt lat="45.32495" lon="10.6532733"><ele>94.80000000000001</ele><time>2026-03-28T13:59:20.524Z</time></trkpt><trkpt lat="45.3248967" lon="10.6534183"><ele>101.6</ele><time>2026-03-28T13:59:21.5Z</time></trkpt><trkpt lat="45.3248167" lon="10.6536433"><ele>108.39999999999999</ele><time>2026-03-28T13:59:23.5Z</time></trkpt><trkpt lat="45.3247617" lon="10.6537283"><ele>115.19999999999999</ele><time>2026-03-28T13:59:24.501Z</time></trkpt><trkpt lat="45.3247033" lon="10.6537933"><ele>122.0</ele><time>2026-03-28T13:59:25.502Z</time></trkpt><trkpt lat="45.32465" lon="10.6538583"><ele>123.6</ele><time>2026-03-28T13:59:26.503Z</time></trkpt><trkpt lat="45.3246017" lon="10.653925"><ele>125.19999999999999</ele><time>2026-03-28T13:59:27.503Z</time></trkpt><trkpt lat="45.3245317" lon="10.6540283"><ele>126.8</ele><time>2026-03-28T13:59:29.5Z</time></trkpt><trkpt lat="45.3245283" lon="10.65414"><ele>128.4</ele><time>2026-03-28T13:59:32.525Z</time></trkpt><trkpt lat="45.3245367" lon="10.6542483"><ele>130.0</ele><time>2026-03-28T13:59:35.5Z</time></trkpt><trkpt lat="45.3246283" lon="10.6543733"><ele>128.0</ele><time>2026-03-28T13:59:37.503Z</time></trkpt><trkpt lat="45.32474" lon="10.654485"><ele>126.0</ele><time>2026-03-28T13:59:38.504Z</time></trkpt><trkpt lat="45.3248467" lon="10.654625"><ele>124.0</ele><time>2026-03-28T13:59:39.503Z</time></trkpt><trkpt lat="45.32498" lon="10.6547883"><ele>124.0</ele><time>2026-03-28T13:59:40.505Z</time></trkpt><trkpt lat="45.32509" lon="10.6549417"><ele>124.0</ele><time>2026-03-28T13:59:41.503Z</time></trkpt><trkpt lat="45.3251867" lon="10.6550917"><ele>124.0</ele><time>2026-03-28T13:59:42.505Z</time></trkpt><trkpt lat="45.3253167" lon="10.6554367"><ele>123.0</ele><time>2026-03-28T13:59:44.503Z</time></trkpt><trkpt lat="45.3253783" lon="10.65561"><ele>122.0</ele><time>2026-03-28T13:59:45.502Z</time></trkpt><trkpt lat="45.32541" lon="10.6557783"><ele>121.0</ele><time>2026-03-28T13:59:46.501Z</time></trkpt><trkpt lat="45.3254667" lon="10.6559383"><ele>120.0</ele><time>2026-03-28T13:59:47.5Z</time></trkpt><trkpt lat="45.32554" lon="10.6560917"><ele>118.16666666666667</ele><time>2026-03-28T13:59:48.503Z</time></trkpt><trkpt lat="45.325525" lon="10.6562"><ele>116.33333333333334</ele><time>2026-03-28T13:59:49.504Z</time></trkpt><trkpt lat="45.3255167" lon="10.6563183"><ele>114.5</ele><time>2026-03-28T13:59:50.503Z</time></trkpt><trkpt lat="45.3255033" lon="10.65643"><ele>112.66666666666667</ele><time>2026-03-28T13:59:51.501Z</time></trkpt><trkpt lat="45.3254933" lon="10.6565333"><ele>110.83333333333334</ele><time>2026-03-28T13:59:52.499Z</time></trkpt><trkpt lat="45.3254867" lon="10.6566333"><ele>109.0</ele><time>2026-03-28T13:59:53.502Z</time></trkpt><trkpt lat="45.3254867" lon="10.6567317"><ele>109.0</ele><time>2026-03-28T13:59:54.504Z</time></trkpt><trkpt lat="45.3254817" lon="10.6568867"><ele>109.0</ele><time>2026-03-28T13:59:56.564Z</time></trkpt><trkpt lat="45.3255" lon="10.6569967"><ele>109.0</ele><time>2026-03-28T13:59:58.504Z</time></trkpt><trkpt lat="45.3254233" lon="10.657125"><ele>109.0</ele><time>2026-03-28T14:00:01.501Z</time></trkpt><trkpt lat="45.3253983" lon="10.657235"><ele>109.0</ele><time>2026-03-28T14:00:03.503Z</time></trkpt><trkpt lat="45.325395" lon="10.6575283"><ele>108.25</ele><time>2026-03-28T14:00:07.5Z</time></trkpt><trkpt lat="45.3254" lon="10.6577"><ele>107.5</ele><time>2026-03-28T14:00:09.501Z</time></trkpt><trkpt lat="45.3253967" lon="10.6578717"><ele>106.75</ele><time>2026-03-28T14:00:11.502Z</time></trkpt><trkpt lat="45.3253983" lon="10.6580317"><ele>106.0</ele><time>2026-03-28T14:00:13.499Z</time></trkpt><trkpt lat="45.3253983" lon="10.6581833"><ele>106.0</ele><time>2026-03-28T14:00:15.5Z</time></trkpt><trkpt lat="45.325395" lon="10.6583283"><ele>106.0</ele><time>2026-03-28T14:00:17.501Z</time></trkpt><trkpt lat="45.3254083" lon="10.6584717"><ele>106.0</ele><time>2026-03-28T14:00:19.502Z</time></trkpt><trkpt lat="45.325435" lon="10.6585717"><ele>106.0</ele><time>2026-03-28T14:00:22.5Z</time></trkpt><trkpt lat="45.3255617" lon="10.658585"><ele>106.0</ele><time>2026-03-28T14:00:25.504Z</time></trkpt><trkpt lat="45.325755" lon="10.65852"><ele>105.25</ele><time>2026-03-28T14:00:28.5Z</time></trkpt><trkpt lat="45.3258483" lon="10.6584883"><ele>104.5</ele><time>2026-03-28T14:00:29.496Z</time></trkpt><trkpt lat="45.3259517" lon="10.6584533"><ele>103.75</ele><time>2026-03-28T14:00:30.505Z</time></trkpt><trkpt lat="45.32607" lon="10.6584067"><ele>103.0</ele><time>2026-03-28T14:00:31.5Z</time></trkpt><trkpt lat="45.326195" lon="10.65836"><ele>103.0</ele><time>2026-03-28T14:00:32.53Z</time></trkpt><trkpt lat="45.326315" lon="10.65832"><ele>103.0</ele><time>2026-03-28T14:00:33.5Z</time></trkpt><trkpt lat="45.3264467" lon="10.6582833"><ele>103.0</ele><time>2026-03-28T14:00:34.505Z</time></trkpt><trkpt lat="45.3265433" lon="10.6582483"><ele>103.0</ele><time>2026-03-28T14:00:35.501Z</time></trkpt><trkpt lat="45.32663" lon="10.6582067"><ele>103.0</ele><time>2026-03-28T14:00:36.502Z</time></trkpt><trkpt lat="45.3267017" lon="10.65819"><ele>102.66666666666667</ele><time>2026-03-28T14:00:37.505Z</time></trkpt><trkpt lat="45.3267883" lon="10.6581917"><ele>102.33333333333334</ele><time>2026-03-28T14:00:38.497Z</time></trkpt><trkpt lat="45.3268617" lon="10.6582467"><ele>102.0</ele><time>2026-03-28T14:00:39.5Z</time></trkpt><trkpt lat="45.3269483" lon="10.658275"><ele>101.66666666666666</ele><time>2026-03-28T14:00:40.498Z</time></trkpt><trkpt lat="45.32702" lon="10.6583367"><ele>101.33333333333333</ele><time>2026-03-28T14:00:41.503Z</time></trkpt><trkpt lat="45.3270483" lon="10.6584567"><ele>101.0</ele><time>2026-03-28T14:00:42.501Z</time></trkpt><trkpt lat="45.3270717" lon="10.6585867"><ele>99.66666666666666</ele><time>2026-03-28T14:00:43.502Z</time></trkpt><trkpt lat="45.3270167" lon="10.6588317"><ele>98.33333333333334</ele><time>2026-03-28T14:00:44.503Z</time></trkpt><trkpt lat="45.3269783" lon="10.6590533"><ele>97.0</ele><time>2026-03-28T14:00:45.5Z</time></trkpt><trkpt lat="45.32696" lon="10.6592367"><ele>96.5</ele><time>2026-03-28T14:00:46.498Z</time></trkpt><trkpt lat="45.3269167" lon="10.659555"><ele>96.0</ele><time>2026-03-28T14:00:48.5Z</time></trkpt><trkpt lat="45.3268683" lon="10.65971"><ele>95.5</ele><time>2026-03-28T14:00:49.502Z</time></trkpt><trkpt lat="45.3268533" lon="10.6598433"><ele>95.0</ele><time>2026-03-28T14:00:50.502Z</time></trkpt><trkpt lat="45.3268417" lon="10.659995"><ele>95.0</ele><time>2026-03-28T14:00:51.498Z</time></trkpt><trkpt lat="45.3268333" lon="10.6601567"><ele>95.0</ele><time>2026-03-28T14:00:52.501Z</time></trkpt><trkpt lat="45.3268267" lon="10.6603333"><ele>95.0</ele><time>2026-03-28T14:00:53.503Z</time></trkpt><trkpt lat="45.3268317" lon="10.6605267"><ele>95.0</ele><time>2026-03-28T14:00:54.502Z</time></trkpt><trkpt lat="45.3268233" lon="10.6607633"><ele>94.0</ele><time>2026-03-28T14:00:55.503Z</time></trkpt><trkpt lat="45.3268233" lon="10.661"><ele>93.0</ele><time>2026-03-28T14:00:56.505Z</time></trkpt><trkpt lat="45.3268167" lon="10.6612433"><ele>92.0</ele><time>2026-03-28T14:00:57.502Z</time></trkpt><trkpt lat="45.3268283" lon="10.6614417"><ele>91.25</ele><time>2026-03-28T14:00:58.501Z</time></trkpt><trkpt lat="45.3268317" lon="10.6616133"><ele>90.5</ele><time>2026-03-28T14:00:59.497Z</time></trkpt><trkpt lat="45.32684" lon="10.6617783"><ele>89.75</ele><time>2026-03-28T14:01:00.501Z</time></trkpt><trkpt lat="45.3268467" lon="10.6619267"><ele>89.0</ele><time>2026-03-28T14:01:01.502Z</time></trkpt><trkpt lat="45.3268533" lon="10.66208"><ele>89.0</ele><time>2026-03-28T14:01:02.53Z</time></trkpt><trkpt lat="45.3268017" lon="10.6622567"><ele>89.0</ele><time>2026-03-28T14:01:03.501Z</time></trkpt><trkpt lat="45.3268367" lon="10.6623567"><ele>89.0</ele><time>2026-03-28T14:01:04.499Z</time></trkpt><trkpt lat="45.3268367" lon="10.6624767"><ele>89.0</ele><time>2026-03-28T14:01:05.505Z</time></trkpt><trkpt lat="45.32681" lon="10.6625667"><ele>89.0</ele><time>2026-03-28T14:01:06.504Z</time></trkpt><trkpt lat="45.326785" lon="10.6626583"><ele>89.0</ele><time>2026-03-28T14:01:07.5Z</time></trkpt><trkpt lat="45.3268083" lon="10.662905"><ele>89.0</ele><time>2026-03-28T14:01:10.501Z</time></trkpt><trkpt lat="45.3268617" lon="10.6629683"><ele>89.0</ele><time>2026-03-28T14:01:11.501Z</time></trkpt><trkpt lat="45.32693" lon="10.6630467"><ele>89.0</ele><time>2026-03-28T14:01:12.502Z</time></trkpt><trkpt lat="45.32702" lon="10.6631383"><ele>89.0</ele><time>2026-03-28T14:01:13.504Z</time></trkpt><trkpt lat="45.3271367" lon="10.6632167"><ele>89.0</ele><time>2026-03-28T14:01:14.498Z</time></trkpt><trkpt lat="45.3272833" lon="10.6633"><ele>89.0</ele><time>2026-03-28T14:01:15.504Z</time></trkpt><trkpt lat="45.32744" lon="10.6634067"><ele>89.0</ele><time>2026-03-28T14:01:16.499Z</time></trkpt><trkpt lat="45.3275933" lon="10.663525"><ele>89.0</ele><time>2026-03-28T14:01:17.505Z</time></trkpt><trkpt lat="45.3277617" lon="10.6636533"><ele>88.33333333333334</ele><time>2026-03-28T14:01:18.5Z</time></trkpt><trkpt lat="45.32792" lon="10.6637783"><ele>87.66666666666667</ele><time>2026-03-28T14:01:19.502Z</time></trkpt><trkpt lat="45.32808" lon="10.663905"><ele>87.0</ele><time>2026-03-28T14:01:20.506Z</time></trkpt><trkpt lat="45.3282567" lon="10.6640333"><ele>86.66666666666667</ele><time>2026-03-28T14:01:21.501Z</time></trkpt><trkpt lat="45.3284267" lon="10.6641417"><ele>86.33333333333334</ele><time>2026-03-28T14:01:22.505Z</time></trkpt><trkpt lat="45.3286067" lon="10.6642417"><ele>86.0</ele><time>2026-03-28T14:01:23.505Z</time></trkpt><trkpt lat="45.3287883" lon="10.664325"><ele>87.0</ele><time>2026-03-28T14:01:24.504Z</time></trkpt><trkpt lat="45.3289683" lon="10.664425"><ele>88.0</ele><time>2026-03-28T14:01:25.503Z</time></trkpt><trkpt lat="45.3291483" lon="10.66452"><ele>89.0</ele><time>2026-03-28T14:01:26.567Z</time></trkpt><trkpt lat="45.329315" lon="10.6646367"><ele>89.5</ele><time>2026-03-28T14:01:27.502Z</time></trkpt><trkpt lat="45.329475" lon="10.6647833"><ele>90.0</ele><time>2026-03-28T14:01:28.498Z</time></trkpt><trkpt lat="45.3297367" lon="10.665235"><ele>90.33333333333333</ele><time>2026-03-28T14:01:30.502Z</time></trkpt><trkpt lat="45.32986" lon="10.6654517"><ele>90.66666666666666</ele><time>2026-03-28T14:01:31.505Z</time></trkpt><trkpt lat="45.3299917" lon="10.6656833"><ele>91.0</ele><time>2026-03-28T14:01:32.525Z</time></trkpt><trkpt lat="45.330105" lon="10.6659067"><ele>90.33333333333333</ele><time>2026-03-28T14:01:33.497Z</time></trkpt><trkpt lat="45.3302167" lon="10.66612"><ele>89.66666666666667</ele><time>2026-03-28T14:01:34.503Z</time></trkpt><trkpt lat="45.33032" lon="10.6663333"><ele>89.0</ele><time>2026-03-28T14:01:35.499Z</time></trkpt><trkpt lat="45.330405" lon="10.666575"><ele>89.0</ele><time>2026-03-28T14:01:36.501Z</time></trkpt><trkpt lat="45.3304967" lon="10.6668283"><ele>89.0</ele><time>2026-03-28T14:01:37.5Z</time></trkpt><trkpt lat="45.3305917" lon="10.6670717"><ele>89.0</ele><time>2026-03-28T14:01:38.503Z</time></trkpt><trkpt lat="45.33067" lon="10.6673217"><ele>89.66666666666667</ele><time>2026-03-28T14:01:39.501Z</time></trkpt><trkpt lat="45.3307533" lon="10.6675833"><ele>90.33333333333333</ele><time>2026-03-28T14:01:40.503Z</time></trkpt><trkpt lat="45.3308233" lon="10.6678367"><ele>91.0</ele><time>2026-03-28T14:01:41.5Z</time></trkpt><trkpt lat="45.3309183" lon="10.6680883"><ele>91.33333333333333</ele><time>2026-03-28T14:01:42.503Z</time></trkpt><trkpt lat="45.3310117" lon="10.6683233"><ele>91.66666666666667</ele><time>2026-03-28T14:01:43.502Z</time></trkpt><trkpt lat="45.331115" lon="10.668565"><ele>92.0</ele><time>2026-03-28T14:01:44.498Z</time></trkpt><trkpt lat="45.3312133" lon="10.6687867"><ele>92.33333333333334</ele><time>2026-03-28T14:01:45.504Z</time></trkpt><trkpt lat="45.3313317" lon="10.668975"><ele>92.66666666666667</ele><time>2026-03-28T14:01:46.499Z</time></trkpt><trkpt lat="45.3314683" lon="10.6691567"><ele>93.0</ele><time>2026-03-28T14:01:47.499Z</time></trkpt><trkpt lat="45.331605" lon="10.6693183"><ele>90.0</ele><time>2026-03-28T14:01:48.498Z</time></trkpt><trkpt lat="45.3317833" lon="10.6694567"><ele>89.0</ele><time>2026-03-28T14:01:49.503Z</time></trkpt></trkseg></trk></gpx>